sensor_id;sensor_type;location;lat;lon;timestamp;pressure;altitude;pressure_sealevel;temperature;humidity
75418;BME280;63997;52.112;5.420;2023-07-31T00:00:58;101058.50;;;15.30;96.43
75418;BME280;63997;52.112;5.420;2023-07-31T00:03:25;101063.19;;;15.33;96.62
75418;BME280;63997;52.112;5.420;2023-07-31T00:05:51;101057.47;;;15.34;96.52
75418;BME280;63997;52.112;5.420;2023-07-31T00:08:18;101042.16;;;15.35;97.04
75418;BME280;63997;52.112;5.420;2023-07-31T00:10:44;101043.81;;;15.40;96.90
75418;BME280;63997;52.112;5.420;2023-07-31T00:13:11;101023.91;;;15.41;97.00
75418;BME280;63997;52.112;5.420;2023-07-31T00:15:38;101028.59;;;15.44;97.37
75418;BME280;63997;52.112;5.420;2023-07-31T00:18:05;101019.06;;;15.46;97.35
75418;BME280;63997;52.112;5.420;2023-07-31T00:20:31;101007.66;;;15.49;97.13
75418;BME280;63997;52.112;5.420;2023-07-31T00:22:57;100995.81;;;15.50;97.21
75418;BME280;63997;52.112;5.420;2023-07-31T00:25:24;101001.25;;;15.54;97.26
75418;BME280;63997;52.112;5.420;2023-07-31T00:27:50;101008.97;;;15.55;96.90
75418;BME280;63997;52.112;5.420;2023-07-31T00:30:16;101004.00;;;15.57;97.23
75418;BME280;63997;52.112;5.420;2023-07-31T00:32:43;101004.44;;;15.59;97.45
75418;BME280;63997;52.112;5.420;2023-07-31T00:35:09;101003.78;;;15.63;97.74
75418;BME280;63997;52.112;5.420;2023-07-31T00:37:36;100992.38;;;15.66;97.45
75418;BME280;63997;52.112;5.420;2023-07-31T00:40:02;100999.34;;;15.70;98.02
75418;BME280;63997;52.112;5.420;2023-07-31T00:42:30;100992.94;;;15.75;98.06
75418;BME280;63997;52.112;5.420;2023-07-31T00:44:56;100998.03;;;15.80;98.61
75418;BME280;63997;52.112;5.420;2023-07-31T00:47:22;100992.41;;;15.85;98.73
75418;BME280;63997;52.112;5.420;2023-07-31T00:49:49;100988.72;;;15.93;99.45
75418;BME280;63997;52.112;5.420;2023-07-31T00:52:15;100986.22;;;16.00;99.46
75418;BME280;63997;52.112;5.420;2023-07-31T00:54:43;100986.72;;;16.06;99.72
75418;BME280;63997;52.112;5.420;2023-07-31T00:57:09;100980.25;;;16.10;100.00
75418;BME280;63997;52.112;5.420;2023-07-31T00:59:36;100987.63;;;16.13;100.00
75418;BME280;63997;52.112;5.420;2023-07-31T01:02:02;100981.97;;;16.19;100.00
75418;BME280;63997;52.112;5.420;2023-07-31T01:04:29;100978.56;;;16.22;100.00
75418;BME280;63997;52.112;5.420;2023-07-31T01:07:09;100974.06;;;16.26;100.00
75418;BME280;63997;52.112;5.420;2023-07-31T01:09:43;100982.97;;;16.30;100.00
75418;BME280;63997;52.112;5.420;2023-07-31T01:12:14;100983.38;;;16.32;100.00
75418;BME280;63997;52.112;5.420;2023-07-31T01:14:51;100970.03;;;16.35;100.00
75418;BME280;63997;52.112;5.420;2023-07-31T01:17:17;100976.16;;;16.36;100.00
75418;BME280;63997;52.112;5.420;2023-07-31T01:19:44;100969.66;;;16.37;100.00
75418;BME280;63997;52.112;5.420;2023-07-31T01:22:28;100978.94;;;16.39;100.00
75418;BME280;63997;52.112;5.420;2023-07-31T01:28:08;100981.75;;;16.47;100.00
75418;BME280;63997;52.112;5.420;2023-07-31T01:30:43;100984.06;;;16.48;100.00
75418;BME280;63997;52.112;5.420;2023-07-31T01:33:10;100973.31;;;16.48;100.00
75418;BME280;63997;52.112;5.420;2023-07-31T01:35:37;100977.16;;;16.47;100.00
75418;BME280;63997;52.112;5.420;2023-07-31T01:38:07;100971.78;;;16.47;100.00
75418;BME280;63997;52.112;5.420;2023-07-31T01:40:33;100977.56;;;16.49;100.00
75418;BME280;63997;52.112;5.420;2023-07-31T01:42:59;100977.56;;;16.49;99.87
75418;BME280;63997;52.112;5.420;2023-07-31T01:45:26;100984.16;;;16.52;99.97
75418;BME280;63997;52.112;5.420;2023-07-31T01:47:52;100981.47;;;16.52;100.00
75418;BME280;63997;52.112;5.420;2023-07-31T01:50:19;100972.63;;;16.51;99.77
75418;BME280;63997;52.112;5.420;2023-07-31T01:52:45;100978.41;;;16.53;99.97
75418;BME280;63997;52.112;5.420;2023-07-31T01:55:12;100966.13;;;16.52;99.81
75418;BME280;63997;52.112;5.420;2023-07-31T01:57:38;100961.16;;;16.54;99.60
75418;BME280;63997;52.112;5.420;2023-07-31T02:00:05;100972.69;;;16.55;99.58
75418;BME280;63997;52.112;5.420;2023-07-31T02:02:32;100966.97;;;16.56;99.76
75418;BME280;63997;52.112;5.420;2023-07-31T02:04:58;100966.19;;;16.56;99.56
75418;BME280;63997;52.112;5.420;2023-07-31T02:07:25;100960.81;;;16.56;99.65
75418;BME280;63997;52.112;5.420;2023-07-31T02:09:51;100956.56;;;16.55;99.89
75418;BME280;63997;52.112;5.420;2023-07-31T02:12:17;100951.56;;;16.53;99.39
75418;BME280;63997;52.112;5.420;2023-07-31T02:14:44;100948.88;;;16.53;99.53
75418;BME280;63997;52.112;5.420;2023-07-31T02:17:11;100948.88;;;16.53;99.55
75418;BME280;63997;52.112;5.420;2023-07-31T02:19:37;100947.34;;;16.52;99.27
75418;BME280;63997;52.112;5.420;2023-07-31T02:22:04;100932.34;;;16.51;99.15
75418;BME280;63997;52.112;5.420;2023-07-31T02:24:30;100923.88;;;16.49;99.24
75418;BME280;63997;52.112;5.420;2023-07-31T02:26:58;100930.75;;;16.47;99.06
75418;BME280;63997;52.112;5.420;2023-07-31T02:29:24;100928.06;;;16.47;98.98
75418;BME280;63997;52.112;5.420;2023-07-31T02:31:51;100926.13;;;16.47;99.13
75418;BME280;63997;52.112;5.420;2023-07-31T02:34:17;100929.97;;;16.46;98.62
75418;BME280;63997;52.112;5.420;2023-07-31T02:36:43;100926.50;;;16.46;98.57
75418;BME280;63997;52.112;5.420;2023-07-31T02:39:10;100928.41;;;16.45;98.77
75418;BME280;63997;52.112;5.420;2023-07-31T02:41:36;100921.13;;;16.46;98.45
75418;BME280;63997;52.112;5.420;2023-07-31T02:44:03;100929.97;;;16.46;98.53
75418;BME280;63997;52.112;5.420;2023-07-31T02:46:29;100935.34;;;16.46;98.87
75418;BME280;63997;52.112;5.420;2023-07-31T02:48:55;100931.88;;;16.46;98.88
75418;BME280;63997;52.112;5.420;2023-07-31T02:51:22;100932.66;;;16.46;98.54
75418;BME280;63997;52.112;5.420;2023-07-31T02:53:48;100918.44;;;16.46;98.38
75418;BME280;63997;52.112;5.420;2023-07-31T02:56:15;100915.75;;;16.46;98.57
75418;BME280;63997;52.112;5.420;2023-07-31T02:58:42;100908.03;;;16.44;98.64
75418;BME280;63997;52.112;5.420;2023-07-31T03:01:08;100915.00;;;16.45;98.46
75418;BME280;63997;52.112;5.420;2023-07-31T03:03:35;100907.28;;;16.44;98.46
75418;BME280;63997;52.112;5.420;2023-07-31T03:06:01;100910.72;;;16.44;98.45
75418;BME280;63997;52.112;5.420;2023-07-31T03:08:28;100908.03;;;16.44;98.33
75418;BME280;63997;52.112;5.420;2023-07-31T03:10:56;100905.38;;;16.44;98.19
75418;BME280;63997;52.112;5.420;2023-07-31T03:13:23;100916.47;;;16.43;98.07
75418;BME280;63997;52.112;5.420;2023-07-31T03:15:50;100918.75;;;16.40;98.12
75418;BME280;63997;52.112;5.420;2023-07-31T03:18:16;100905.69;;;16.39;98.21
75418;BME280;63997;52.112;5.420;2023-07-31T03:20:44;100909.16;;;16.39;97.99
75418;BME280;63997;52.112;5.420;2023-07-31T03:23:14;100907.22;;;16.40;97.95
75418;BME280;63997;52.112;5.420;2023-07-31T03:25:55;100907.22;;;16.40;97.96
75418;BME280;63997;52.112;5.420;2023-07-31T03:28:21;100903.78;;;16.39;98.02
75418;BME280;63997;52.112;5.420;2023-07-31T03:30:48;100901.09;;;16.39;97.96
75418;BME280;63997;52.112;5.420;2023-07-31T03:33:14;100904.88;;;16.38;97.61
75418;BME280;63997;52.112;5.420;2023-07-31T03:35:40;100906.38;;;16.36;97.53
75418;BME280;63997;52.112;5.420;2023-07-31T03:38:07;100908.28;;;16.35;97.43
75418;BME280;63997;52.112;5.420;2023-07-31T03:40:36;100904.84;;;16.35;97.33
75418;BME280;63997;52.112;5.420;2023-07-31T03:43:03;100899.03;;;16.33;97.24
75418;BME280;63997;52.112;5.420;2023-07-31T03:45:29;100897.47;;;16.32;96.93
75418;BME280;63997;52.112;5.420;2023-07-31T03:47:56;100897.47;;;16.32;97.10
75418;BME280;63997;52.112;5.420;2023-07-31T03:50:22;100898.63;;;16.31;96.81
75418;BME280;63997;52.112;5.420;2023-07-31T03:52:49;100908.22;;;16.32;96.92
75418;BME280;63997;52.112;5.420;2023-07-31T03:55:15;100906.66;;;16.31;96.75
75418;BME280;63997;52.112;5.420;2023-07-31T03:57:41;100894.81;;;16.32;96.93
75418;BME280;63997;52.112;5.420;2023-07-31T04:00:08;100902.44;;;16.30;96.75
75418;BME280;63997;52.112;5.420;2023-07-31T04:02:35;100890.94;;;16.29;96.74
75418;BME280;63997;52.112;5.420;2023-07-31T04:05:01;100900.91;;;16.29;96.23
75418;BME280;63997;52.112;5.420;2023-07-31T04:07:28;100890.09;;;16.25;95.94
75418;BME280;63997;52.112;5.420;2023-07-31T04:09:55;100883.94;;;16.25;95.97
75418;BME280;63997;52.112;5.420;2023-07-31T04:12:21;100877.41;;;16.22;95.94
75418;BME280;63997;52.112;5.420;2023-07-31T04:14:48;100869.34;;;16.22;95.97
75418;BME280;63997;52.112;5.420;2023-07-31T04:17:14;100871.59;;;16.20;96.15
75418;BME280;63997;52.112;5.420;2023-07-31T04:19:40;100867.34;;;16.19;96.21
75418;BME280;63997;52.112;5.420;2023-07-31T04:22:07;100856.63;;;16.19;95.88
75418;BME280;63997;52.112;5.420;2023-07-31T04:24:33;100851.63;;;16.18;95.83
75418;BME280;63997;52.112;5.420;2023-07-31T04:27:00;100846.25;;;16.18;95.66
75418;BME280;63997;52.112;5.420;2023-07-31T04:29:26;100854.31;;;16.18;95.47
75418;BME280;63997;52.112;5.420;2023-07-31T04:31:52;100858.53;;;16.19;95.29
75418;BME280;63997;52.112;5.420;2023-07-31T04:34:19;100857.00;;;16.18;95.20
75418;BME280;63997;52.112;5.420;2023-07-31T04:36:45;100860.06;;;16.20;95.65
75418;BME280;63997;52.112;5.420;2023-07-31T04:39:12;100867.00;;;16.21;95.39
75418;BME280;63997;52.112;5.420;2023-07-31T04:41:38;100871.59;;;16.20;95.73
75418;BME280;63997;52.112;5.420;2023-07-31T04:44:04;100868.13;;;16.20;95.90
75418;BME280;63997;52.112;5.420;2023-07-31T04:46:31;100869.28;;;16.19;95.92
75418;BME280;63997;52.112;5.420;2023-07-31T04:48:57;100864.59;;;16.16;95.70
75418;BME280;63997;52.112;5.420;2023-07-31T04:51:24;100861.16;;;16.15;96.09
75418;BME280;63997;52.112;5.420;2023-07-31T04:53:51;100853.53;;;16.17;96.25
75418;BME280;63997;52.112;5.420;2023-07-31T04:56:17;100852.31;;;16.14;96.40
75418;BME280;63997;52.112;5.420;2023-07-31T04:58:44;100856.13;;;16.13;96.22
75418;BME280;63997;52.112;5.420;2023-07-31T05:01:10;100844.63;;;16.13;96.62
75418;BME280;63997;52.112;5.420;2023-07-31T05:03:36;100832.34;;;16.12;96.75
75418;BME280;63997;52.112;5.420;2023-07-31T05:06:03;100838.50;;;16.12;96.67
75418;BME280;63997;52.112;5.420;2023-07-31T05:08:29;100835.81;;;16.12;96.90
75418;BME280;63997;52.112;5.420;2023-07-31T05:10:56;100832.69;;;16.10;96.85
75418;BME280;63997;52.112;5.420;2023-07-31T05:13:22;100841.09;;;16.09;97.00
75418;BME280;63997;52.112;5.420;2023-07-31T05:15:48;100842.25;;;16.08;97.33
75418;BME280;63997;52.112;5.420;2023-07-31T05:18:15;100834.19;;;16.08;97.20
75418;BME280;63997;52.112;5.420;2023-07-31T05:20:42;100834.19;;;16.08;97.21
75418;BME280;63997;52.112;5.420;2023-07-31T05:23:09;100833.78;;;16.06;97.17
75418;BME280;63997;52.112;5.420;2023-07-31T05:25:35;100827.22;;;16.03;96.82
75418;BME280;63997;52.112;5.420;2023-07-31T05:28:02;100828.34;;;16.02;96.99
75418;BME280;63997;52.112;5.420;2023-07-31T05:30:31;100837.53;;;16.01;97.25
75418;BME280;63997;52.112;5.420;2023-07-31T05:32:58;100820.66;;;16.01;97.37
75418;BME280;63997;52.112;5.420;2023-07-31T05:35:24;100816.75;;;15.98;97.18
75418;BME280;63997;52.112;5.420;2023-07-31T05:37:51;100824.81;;;15.98;97.65
75418;BME280;63997;52.112;5.420;2023-07-31T05:40:17;100816.00;;;15.98;97.44
75418;BME280;63997;52.112;5.420;2023-07-31T05:42:44;100811.00;;;15.96;97.61
75418;BME280;63997;52.112;5.420;2023-07-31T05:45:10;100815.16;;;15.94;97.62
75418;BME280;63997;52.112;5.420;2023-07-31T05:47:36;100804.41;;;15.94;97.85
75418;BME280;63997;52.112;5.420;2023-07-31T05:50:03;100810.59;;;15.94;97.91
75418;BME280;63997;52.112;5.420;2023-07-31T05:52:30;100791.81;;;15.94;98.15
75418;BME280;63997;52.112;5.420;2023-07-31T05:54:56;100790.22;;;15.93;98.11
75418;BME280;63997;52.112;5.420;2023-07-31T05:57:23;100791.38;;;15.92;98.02
75418;BME280;63997;52.112;5.420;2023-07-31T05:59:53;100797.50;;;15.93;97.93
75418;BME280;63997;52.112;5.420;2023-07-31T06:02:20;100787.13;;;15.91;98.20
75418;BME280;63997;52.112;5.420;2023-07-31T06:04:46;100785.22;;;15.92;98.47
75418;BME280;63997;52.112;5.420;2023-07-31T06:07:13;100779.88;;;15.92;98.58
75418;BME280;63997;52.112;5.420;2023-07-31T06:09:40;100781.41;;;15.93;98.40
75418;BME280;63997;52.112;5.420;2023-07-31T06:12:07;100779.50;;;15.93;98.47
75418;BME280;63997;52.112;5.420;2023-07-31T06:14:33;100776.03;;;15.93;98.68
75418;BME280;63997;52.112;5.420;2023-07-31T06:17:00;100776.03;;;15.93;98.64
75418;BME280;63997;52.112;5.420;2023-07-31T06:19:26;100781.06;;;15.94;98.60
75418;BME280;63997;52.112;5.420;2023-07-31T06:21:53;100782.19;;;15.93;98.78
75418;BME280;63997;52.112;5.420;2023-07-31T06:24:19;100769.53;;;15.94;98.81
75418;BME280;63997;52.112;5.420;2023-07-31T06:26:47;100766.16;;;15.97;98.64
75418;BME280;63997;52.112;5.420;2023-07-31T06:29:13;100774.56;;;15.95;98.92
75418;BME280;63997;52.112;5.420;2023-07-31T06:31:41;100765.38;;;15.96;99.08
75418;BME280;63997;52.112;5.420;2023-07-31T06:34:08;100760.03;;;15.96;98.91
75418;BME280;63997;52.112;5.420;2023-07-31T06:36:36;100761.22;;;15.99;98.95
75418;BME280;63997;52.112;5.420;2023-07-31T06:39:03;100754.72;;;16.00;98.92
75418;BME280;63997;52.112;5.420;2023-07-31T06:41:30;100751.69;;;16.01;99.22
75418;BME280;63997;52.112;5.420;2023-07-31T06:43:56;100746.38;;;16.05;99.04
75418;BME280;63997;52.112;5.420;2023-07-31T06:46:22;100748.72;;;16.06;99.22
75418;BME280;63997;52.112;5.420;2023-07-31T06:48:49;100741.84;;;16.09;98.98
75418;BME280;63997;52.112;5.420;2023-07-31T06:51:16;100740.38;;;16.11;99.51
75418;BME280;63997;52.112;5.420;2023-07-31T06:53:42;100741.19;;;16.16;99.43
75418;BME280;63997;52.112;5.420;2023-07-31T06:56:11;100739.69;;;16.18;99.20
75418;BME280;63997;52.112;5.420;2023-07-31T06:58:38;100730.50;;;16.19;99.29
75418;BME280;63997;52.112;5.420;2023-07-31T07:01:08;100732.88;;;16.24;99.33
75418;BME280;63997;52.112;5.420;2023-07-31T07:03:34;100733.34;;;16.30;99.52
75418;BME280;63997;52.112;5.420;2023-07-31T07:06:00;100729.16;;;16.32;99.55
75418;BME280;63997;52.112;5.420;2023-07-31T07:08:27;100720.78;;;16.34;99.58
75418;BME280;63997;52.112;5.420;2023-07-31T07:10:53;100724.63;;;16.36;99.56
75418;BME280;63997;52.112;5.420;2023-07-31T07:13:21;100724.69;;;16.40;99.59
75418;BME280;63997;52.112;5.420;2023-07-31T07:15:48;100721.28;;;16.43;99.47
75418;BME280;63997;52.112;5.420;2023-07-31T07:18:15;100721.75;;;16.49;99.32
75418;BME280;63997;52.112;5.420;2023-07-31T07:20:52;100729.09;;;16.52;99.56
75418;BME280;63997;52.112;5.420;2023-07-31T07:23:19;100725.25;;;16.53;99.24
75418;BME280;63997;52.112;5.420;2023-07-31T07:25:46;100728.34;;;16.55;99.36
75418;BME280;63997;52.112;5.420;2023-07-31T07:28:13;100727.25;;;16.56;99.42
75418;BME280;63997;52.112;5.420;2023-07-31T07:30:41;100724.59;;;16.59;99.39
75418;BME280;63997;52.112;5.420;2023-07-31T07:33:09;100723.44;;;16.60;99.38
75418;BME280;63997;52.112;5.420;2023-07-31T07:35:36;100716.53;;;16.59;99.34
75418;BME280;63997;52.112;5.420;2023-07-31T07:38:02;100724.66;;;16.63;99.53
75418;BME280;63997;52.112;5.420;2023-07-31T07:40:29;100722.72;;;16.63;99.56
75418;BME280;63997;52.112;5.420;2023-07-31T07:42:55;100727.72;;;16.65;99.43
75418;BME280;63997;52.112;5.420;2023-07-31T07:45:22;100719.31;;;16.66;99.70
75418;BME280;63997;52.112;5.420;2023-07-31T07:47:48;100713.22;;;16.70;99.68
75418;BME280;63997;52.112;5.420;2023-07-31T07:50:14;100713.66;;;16.72;99.91
75418;BME280;63997;52.112;5.420;2023-07-31T07:52:41;100719.44;;;16.74;99.82
75418;BME280;63997;52.112;5.420;2023-07-31T07:55:08;100714.09;;;16.77;99.90
75418;BME280;63997;52.112;5.420;2023-07-31T07:57:34;100718.41;;;16.82;99.55
75418;BME280;63997;52.112;5.420;2023-07-31T08:00:00;100708.88;;;16.88;99.80
75418;BME280;63997;52.112;5.420;2023-07-31T08:02:27;100719.28;;;16.89;99.71
75418;BME280;63997;52.112;5.420;2023-07-31T08:04:53;100710.41;;;16.89;99.48
75418;BME280;63997;52.112;5.420;2023-07-31T08:07:20;100715.84;;;16.92;99.32
75418;BME280;63997;52.112;5.420;2023-07-31T08:09:53;100708.56;;;16.93;99.33
75418;BME280;63997;52.112;5.420;2023-07-31T08:12:22;100692.88;;;16.95;99.44
75418;BME280;63997;52.112;5.420;2023-07-31T08:14:49;100696.72;;;16.98;99.44
75418;BME280;63997;52.112;5.420;2023-07-31T08:17:15;100706.78;;;17.04;99.53
75418;BME280;63997;52.112;5.420;2023-07-31T08:19:42;100685.72;;;17.06;99.41
75418;BME280;63997;52.112;5.420;2023-07-31T08:22:08;100691.16;;;17.13;99.04
75418;BME280;63997;52.112;5.420;2023-07-31T08:24:35;100688.91;;;17.19;99.54
75418;BME280;63997;52.112;5.420;2023-07-31T08:27:01;100690.50;;;17.24;99.31
75418;BME280;63997;52.112;5.420;2023-07-31T08:29:28;100684.69;;;17.22;99.10
75418;BME280;63997;52.112;5.420;2023-07-31T08:31:54;100690.53;;;17.27;99.42
75418;BME280;63997;52.112;5.420;2023-07-31T08:34:22;100676.38;;;17.30;99.25
75418;BME280;63997;52.112;5.420;2023-07-31T08:36:51;100677.53;;;17.33;99.13
75418;BME280;63997;52.112;5.420;2023-07-31T08:39:17;100679.06;;;17.34;98.80
75418;BME280;63997;52.112;5.420;2023-07-31T08:41:44;100676.03;;;17.35;98.61
75418;BME280;63997;52.112;5.420;2023-07-31T08:44:11;100684.94;;;17.43;98.52
75418;BME280;63997;52.112;5.420;2023-07-31T08:46:39;100685.38;;;17.49;98.45
75418;BME280;63997;52.112;5.420;2023-07-31T08:49:07;100680.03;;;17.52;98.18
75418;BME280;63997;52.112;5.420;2023-07-31T08:51:39;100689.66;;;17.53;98.68
75418;BME280;63997;52.112;5.420;2023-07-31T08:54:07;100685.44;;;17.56;98.27
75418;BME280;63997;52.112;5.420;2023-07-31T08:56:34;100674.78;;;17.66;98.30
75418;BME280;63997;52.112;5.420;2023-07-31T08:59:02;100677.13;;;17.68;98.22
75418;BME280;63997;52.112;5.420;2023-07-31T09:01:36;100676.31;;;17.67;97.96
75418;BME280;63997;52.112;5.420;2023-07-31T09:04:08;100664.84;;;17.70;97.73
75418;BME280;63997;52.112;5.420;2023-07-31T09:06:35;100671.06;;;17.75;97.77
75418;BME280;63997;52.112;5.420;2023-07-31T09:09:03;100671.06;;;17.75;97.62
75418;BME280;63997;52.112;5.420;2023-07-31T09:11:29;100686.84;;;17.80;98.06
75418;BME280;63997;52.112;5.420;2023-07-31T09:13:57;100673.41;;;17.80;97.82
75418;BME280;63997;52.112;5.420;2023-07-31T09:16:29;100686.47;;;17.81;97.85
75418;BME280;63997;52.112;5.420;2023-07-31T09:18:59;100678.44;;;17.85;97.75
75418;BME280;63997;52.112;5.420;2023-07-31T09:21:28;100684.91;;;17.77;97.37
75418;BME280;63997;52.112;5.420;2023-07-31T09:23:54;100670.28;;;17.74;97.56
75418;BME280;63997;52.112;5.420;2023-07-31T09:26:35;100664.53;;;17.76;97.78
75418;BME280;63997;52.112;5.420;2023-07-31T09:29:05;100662.97;;;17.75;97.59
75418;BME280;63997;52.112;5.420;2023-07-31T09:31:42;100672.97;;;17.74;97.54
75418;BME280;63997;52.112;5.420;2023-07-31T09:34:09;100667.22;;;17.76;97.65
75418;BME280;63997;52.112;5.420;2023-07-31T09:36:44;100655.31;;;17.77;97.91
75418;BME280;63997;52.112;5.420;2023-07-31T09:39:13;100656.50;;;17.83;97.94
75418;BME280;63997;52.112;5.420;2023-07-31T09:41:42;100661.16;;;17.89;97.96
75418;BME280;63997;52.112;5.420;2023-07-31T09:44:10;100663.53;;;17.98;97.73
75418;BME280;63997;52.112;5.420;2023-07-31T09:46:37;100656.31;;;18.09;97.94
75418;BME280;63997;52.112;5.420;2023-07-31T09:49:09;100657.50;;;18.15;97.65
75418;BME280;63997;52.112;5.420;2023-07-31T09:51:37;100659.47;;;18.18;97.38
75418;BME280;63997;52.112;5.420;2023-07-31T09:54:14;100651.00;;;18.23;97.42
75418;BME280;63997;52.112;5.420;2023-07-31T09:56:43;100653.75;;;18.27;97.27
75418;BME280;63997;52.112;5.420;2023-07-31T09:59:11;100654.13;;;18.26;97.01
75418;BME280;63997;52.112;5.420;2023-07-31T10:01:39;100651.00;;;18.23;96.67
75418;BME280;63997;52.112;5.420;2023-07-31T10:04:08;100661.78;;;18.23;96.70
75418;BME280;63997;52.112;5.420;2023-07-31T10:06:36;100648.78;;;18.33;97.22
75418;BME280;63997;52.112;5.420;2023-07-31T10:09:06;100651.53;;;18.43;96.78
75418;BME280;63997;52.112;5.420;2023-07-31T10:11:41;100659.59;;;18.43;96.09
75418;BME280;63997;52.112;5.420;2023-07-31T10:14:10;100643.41;;;18.40;96.35
75418;BME280;63997;52.112;5.420;2023-07-31T10:16:38;100659.59;;;18.43;96.10
75418;BME280;63997;52.112;5.420;2023-07-31T10:19:06;100656.91;;;18.43;95.66
75418;BME280;63997;52.112;5.420;2023-07-31T10:21:34;100664.56;;;18.38;95.75
75418;BME280;63997;52.112;5.420;2023-07-31T10:24:03;100661.84;;;18.34;95.93
75418;BME280;63997;52.112;5.420;2023-07-31T10:26:34;100662.25;;;18.36;96.05
75418;BME280;63997;52.112;5.420;2023-07-31T10:29:01;100662.66;;;18.38;95.90
75418;BME280;63997;52.112;5.420;2023-07-31T10:31:28;100658.38;;;18.30;95.71
75418;BME280;63997;52.112;5.420;2023-07-31T10:33:57;100661.84;;;18.31;95.77
75418;BME280;63997;52.112;5.420;2023-07-31T10:36:25;100660.31;;;18.30;95.86
75418;BME280;63997;52.112;5.420;2023-07-31T10:38:51;100653.78;;;18.31;95.73
75418;BME280;63997;52.112;5.420;2023-07-31T10:41:18;100656.09;;;18.36;96.01
75418;BME280;63997;52.112;5.420;2023-07-31T10:43:48;100656.88;;;18.40;95.88
75418;BME280;63997;52.112;5.420;2023-07-31T10:46:15;100649.59;;;18.44;96.15
75418;BME280;63997;52.112;5.420;2023-07-31T10:48:41;100646.94;;;18.51;95.21
75418;BME280;63997;52.112;5.420;2023-07-31T10:51:09;100654.31;;;18.58;95.52
75418;BME280;63997;52.112;5.420;2023-07-31T10:53:39;100645.53;;;18.71;95.45
75418;BME280;63997;52.112;5.420;2023-07-31T10:56:09;100659.03;;;18.79;95.26
75418;BME280;63997;52.112;5.420;2023-07-31T10:58:39;100654.78;;;18.77;95.12
75418;BME280;63997;52.112;5.420;2023-07-31T11:01:06;100658.25;;;18.74;94.85
75418;BME280;63997;52.112;5.420;2023-07-31T11:03:46;100651.72;;;18.75;94.23
75418;BME280;63997;52.112;5.420;2023-07-31T11:06:14;100642.88;;;18.82;94.64
75418;BME280;63997;52.112;5.420;2023-07-31T11:08:48;100651.75;;;18.86;94.23
75418;BME280;63997;52.112;5.420;2023-07-31T11:11:17;100651.78;;;18.97;94.93
75418;BME280;63997;52.112;5.420;2023-07-31T11:13:46;100651.78;;;18.97;94.39
75418;BME280;63997;52.112;5.420;2023-07-31T11:16:17;100657.56;;;18.99;95.11
75418;BME280;63997;52.112;5.420;2023-07-31T11:18:45;100659.47;;;18.91;94.63
75418;BME280;63997;52.112;5.420;2023-07-31T11:21:17;100652.53;;;18.87;94.91
75418;BME280;63997;52.112;5.420;2023-07-31T11:23:48;100649.81;;;18.87;94.80
75418;BME280;63997;52.112;5.420;2023-07-31T11:26:15;100649.81;;;18.83;95.23
75418;BME280;63997;52.112;5.420;2023-07-31T11:28:42;100647.88;;;18.80;94.94
75418;BME280;63997;52.112;5.420;2023-07-31T11:31:10;100655.94;;;18.76;95.32
75418;BME280;63997;52.112;5.420;2023-07-31T11:33:37;100647.88;;;18.80;95.57
75418;BME280;63997;52.112;5.420;2023-07-31T11:36:04;100650.59;;;18.80;95.38
75418;BME280;63997;52.112;5.420;2023-07-31T11:38:32;100649.44;;;18.81;95.63
75418;BME280;63997;52.112;5.420;2023-07-31T11:41:01;100647.47;;;18.74;95.11
75418;BME280;63997;52.112;5.420;2023-07-31T11:43:31;100643.22;;;18.73;95.35
75418;BME280;63997;52.112;5.420;2023-07-31T11:45:59;100646.31;;;18.75;95.20
75418;BME280;63997;52.112;5.420;2023-07-31T11:48:32;100639.41;;;18.74;95.31
75418;BME280;63997;52.112;5.420;2023-07-31T11:51:04;100645.50;;;18.68;95.18
75418;BME280;63997;52.112;5.420;2023-07-31T11:56:37;100636.22;;;18.58;95.46
75418;BME280;63997;52.112;5.420;2023-07-31T11:59:04;100633.13;;;18.56;95.49
75418;BME280;63997;52.112;5.420;2023-07-31T12:01:34;100630.03;;;18.54;95.29
75418;BME280;63997;52.112;5.420;2023-07-31T12:04:01;100634.66;;;18.57;95.60
75418;BME280;63997;52.112;5.420;2023-07-31T12:06:34;100634.69;;;18.61;95.89
75418;BME280;63997;52.112;5.420;2023-07-31T12:09:03;100625.47;;;18.65;95.64
75418;BME280;63997;52.112;5.420;2023-07-31T12:11:30;100645.16;;;18.69;95.92
75418;BME280;63997;52.112;5.420;2023-07-31T12:13:56;100646.28;;;18.72;95.97
75418;BME280;63997;52.112;5.420;2023-07-31T12:16:26;100634.78;;;18.79;95.61
75418;BME280;63997;52.112;5.420;2023-07-31T12:18:53;100640.94;;;18.83;95.34
75418;BME280;63997;52.112;5.420;2023-07-31T12:21:19;100648.28;;;18.86;95.41
75418;BME280;63997;52.112;5.420;2023-07-31T12:23:46;100630.94;;;18.83;95.20
75418;BME280;63997;52.112;5.420;2023-07-31T12:26:14;100628.63;;;18.82;94.94
75418;BME280;63997;52.112;5.420;2023-07-31T12:28:49;100630.56;;;18.85;95.47
75418;BME280;63997;52.112;5.420;2023-07-31T12:31:17;100620.19;;;18.90;94.71
75418;BME280;63997;52.112;5.420;2023-07-31T12:33:45;100610.56;;;18.93;94.98
75418;BME280;63997;52.112;5.420;2023-07-31T12:36:14;100599.03;;;18.92;94.23
75418;BME280;63997;52.112;5.420;2023-07-31T12:38:41;100597.50;;;18.91;94.84
75418;BME280;63997;52.112;5.420;2023-07-31T12:41:08;100590.94;;;18.96;94.57
75418;BME280;63997;52.112;5.420;2023-07-31T12:43:38;100610.56;;;18.96;94.45
75418;BME280;63997;52.112;5.420;2023-07-31T12:46:06;100609.03;;;18.95;94.75
75418;BME280;63997;52.112;5.420;2023-07-31T12:48:36;100606.34;;;18.99;94.74
75418;BME280;63997;52.112;5.420;2023-07-31T12:51:04;100609.81;;;18.99;94.39
75418;BME280;63997;52.112;5.420;2023-07-31T12:53:30;100601.72;;;18.96;94.19
75418;BME280;63997;52.112;5.420;2023-07-31T12:55:57;100598.63;;;18.94;94.51
75418;BME280;63997;52.112;5.420;2023-07-31T12:58:23;100604.81;;;18.94;94.49